M S San Francisco — WZC3886 — position and weather

sailwx.info

Track history (hours):
 
Tides and Currents Weather Stations Pressure Air Temp Water Temp Dewpoint Dewpoint Depression Visibility Wind Speed Wind Dir Waves Ship Positions

M S San Francisco

Owner: GOLDEN GATE BRIDGE HWY & TRANSP DISTRICT, LARKSPUR, CA. More information available from US FCC via Universal Licensing System and Coast Guard Vessel Documentation Center.

Last reported at 2016-May-25 06:33 UTC. Time now 2016-May-25 09:12 UTC.
Position N 37°57' W 122°31'.

Length 58 m.

Type: Passenger vessel. MMSI: 366963980.

Date/timePositionNaut miles runAvg speedWind from/ knotsBaromVisibWave heightAir tempDewpointWater temp
2016-May-25 06:33N 37°57' W 122°31'1211.6
2016-May-25 05:33N 37°47' W 122°23'0 0.0
2016-May-25 04:33N 37°47' W 122°23'0 0.0
2016-May-25 03:33N 37°47' W 122°23'0 0.0
2016-May-25 02:33N 37°47' W 122°23'0 0.3
2016-May-25 01:33N 37°47' W 122°23'12 9.5
2016-May-25 00:21N 37°57' W 122°31'0 0.1
2016-May-24 23:28N 37°57' W 122°30'0 0.0
2016-May-24 22:22N 37°57' W 122°31'0 0.0
2016-May-24 21:33N 37°57' W 122°31'0 0.1
2016-May-24 20:33N 37°57' W 122°31'0 0.0
2016-May-24 19:33N 37°57' W 122°31'0 0.1
2016-May-24 17:32N 37°57' W 122°30'0 0.0
2016-May-24 16:24N 37°57' W 122°30'0 0.0
2016-May-24 14:33N 37°57' W 122°31'0 0.1
2016-May-24 13:33N 37°57' W 122°31'0 0.0
2016-May-24 12:33N 37°57' W 122°31'0 0.0
2016-May-24 11:34N 37°57' W 122°31'0 0.0
2016-May-24 10:33N 37°57' W 122°31'0 0.0
2016-May-24 09:33N 37°57' W 122°31'0 0.0
2016-May-24 08:33N 37°57' W 122°31'0 0.0
2016-May-24 07:33N 37°57' W 122°31'0 0.0
2016-May-24 06:33N 37°57' W 122°31'0 0.0
2016-May-24 05:33N 37°57' W 122°31'0 0.0
2016-May-24 04:33N 37°57' W 122°31'6 5.8
2016-May-24 03:33N 37°51' W 122°28'1 0.8
2016-May-24 02:34N 37°51' W 122°27'3 3.4
2016-May-24 01:33N 37°49' W 122°24'1 0.9
2016-May-24 00:33N 37°48' W 122°24'5 5.5
2016-May-23 23:33N 37°51' W 122°29'3 2.7
2016-May-23 22:33N 37°50' W 122°26'3 2.9
2016-May-23 21:33N 37°48' W 122°24'5 5.4
2016-May-23 20:33N 37°51' W 122°29'5 5.0
2016-May-23 19:34N 37°49' W 122°23'1 0.9
2016-May-23 18:33N 37°48' W 122°24'5 5.5
2016-May-23 17:33N 37°51' W 122°29'5 5.4
2016-May-23 16:33N 37°48' W 122°24'3 3.0
2016-May-23 15:33N 37°50' W 122°25'3 2.9
2016-May-23 14:34N 37°48' W 122°23'9 8.9
2016-May-23 13:34N 37°56' W 122°29'2 0.2
2016-May-23 04:14N 37°57' W 122°31'812.3
2016-May-23 03:33N 37°50' W 122°24'4 3.6
2016-May-23 02:33N 37°47' W 122°23'0 0.0
2016-May-23 01:33N 37°47' W 122°23'0 0.0
2016-May-23 00:33N 37°47' W 122°23'0 0.0
2016-May-22 23:33N 37°47' W 122°23'1111.1
2016-May-22 22:33N 37°56' W 122°30'0 0.4
2016-May-22 21:33N 37°57' W 122°30'5 0.3
2016-May-22 03:33N 37°54' W 122°26'7 7.1
2016-May-22 02:33N 37°47' W 122°23'0 0.0
2016-May-22 01:33N 37°47' W 122°23'0 0.0
2016-May-22 00:33N 37°47' W 122°23'0 0.0
2016-May-21 23:33N 37°47' W 122°23'0 0.2
2016-May-21 22:33N 37°47' W 122°23'1211.5
2016-May-21 21:33N 37°57' W 122°30'0 0.1
2016-May-21 20:33N 37°57' W 122°31'0 0.1
2016-May-21 19:33N 37°57' W 122°30'0 0.0
2016-May-21 07:16N 37°57' W 122°30'5 7.0
2016-May-21 06:33N 37°53' W 122°26'7 7.0
2016-May-21 05:33N 37°47' W 122°23'0 0.0
2016-May-21 04:33N 37°47' W 122°23'0 0.0
2016-May-21 03:33N 37°47' W 122°23'0 0.0
2016-May-21 02:33N 37°47' W 122°23'4 3.8
2016-May-21 01:34N 37°50' W 122°24'8 8.1
2016-May-21 00:34N 37°57' W 122°31'  
Track history (hours):
 
Tides and Currents Weather Stations Pressure Air Temp Water Temp Dewpoint Dewpoint Depression Visibility Wind Speed Wind Dir Waves Ship Positions

M S San Francisco

Owner: GOLDEN GATE BRIDGE HWY & TRANSP DISTRICT, LARKSPUR, CA. More information available from US FCC via Universal Licensing System and Coast Guard Vessel Documentation Center.

Last reported at 2016-May-25 06:33 UTC. Time now 2016-May-25 09:12 UTC.
Position N 37°57' W 122°31'.

Length 58 m.

Type: Passenger vessel. MMSI: 366963980.

Date/timePositionNaut miles runAvg speedWind from/ knotsBaromVisibWave heightAir tempDewpointWater temp
2016-May-25 06:33N 37°57' W 122°31'1211.6
2016-May-25 05:33N 37°47' W 122°23'0 0.0
2016-May-25 04:33N 37°47' W 122°23'0 0.0
2016-May-25 03:33N 37°47' W 122°23'0 0.0
2016-May-25 02:33N 37°47' W 122°23'0 0.3
2016-May-25 01:33N 37°47' W 122°23'12 9.5
2016-May-25 00:21N 37°57' W 122°31'0 0.1
2016-May-24 23:28N 37°57' W 122°30'0 0.0
2016-May-24 22:22N 37°57' W 122°31'0 0.0
2016-May-24 21:33N 37°57' W 122°31'0 0.1
2016-May-24 20:33N 37°57' W 122°31'0 0.0
2016-May-24 19:33N 37°57' W 122°31'0 0.1
2016-May-24 17:32N 37°57' W 122°30'0 0.0
2016-May-24 16:24N 37°57' W 122°30'0 0.0
2016-May-24 14:33N 37°57' W 122°31'0 0.1
2016-May-24 13:33N 37°57' W 122°31'0 0.0
2016-May-24 12:33N 37°57' W 122°31'0 0.0
2016-May-24 11:34N 37°57' W 122°31'0 0.0
2016-May-24 10:33N 37°57' W 122°31'0 0.0
2016-May-24 09:33N 37°57' W 122°31'0 0.0
2016-May-24 08:33N 37°57' W 122°31'0 0.0
2016-May-24 07:33N 37°57' W 122°31'0 0.0
2016-May-24 06:33N 37°57' W 122°31'0 0.0
2016-May-24 05:33N 37°57' W 122°31'0 0.0
2016-May-24 04:33N 37°57' W 122°31'6 5.8
2016-May-24 03:33N 37°51' W 122°28'1 0.8
2016-May-24 02:34N 37°51' W 122°27'3 3.4
2016-May-24 01:33N 37°49' W 122°24'1 0.9
2016-May-24 00:33N 37°48' W 122°24'5 5.5
2016-May-23 23:33N 37°51' W 122°29'3 2.7
2016-May-23 22:33N 37°50' W 122°26'3 2.9
2016-May-23 21:33N 37°48' W 122°24'5 5.4
2016-May-23 20:33N 37°51' W 122°29'5 5.0
2016-May-23 19:34N 37°49' W 122°23'1 0.9
2016-May-23 18:33N 37°48' W 122°24'5 5.5
2016-May-23 17:33N 37°51' W 122°29'5 5.4
2016-May-23 16:33N 37°48' W 122°24'3 3.0
2016-May-23 15:33N 37°50' W 122°25'3 2.9
2016-May-23 14:34N 37°48' W 122°23'9 8.9
2016-May-23 13:34N 37°56' W 122°29'2 0.2
2016-May-23 04:14N 37°57' W 122°31'812.3
2016-May-23 03:33N 37°50' W 122°24'4 3.6
2016-May-23 02:33N 37°47' W 122°23'0 0.0
2016-May-23 01:33N 37°47' W 122°23'0 0.0
2016-May-23 00:33N 37°47' W 122°23'0 0.0
2016-May-22 23:33N 37°47' W 122°23'1111.1
2016-May-22 22:33N 37°56' W 122°30'0 0.4
2016-May-22 21:33N 37°57' W 122°30'5 0.3
2016-May-22 03:33N 37°54' W 122°26'7 7.1
2016-May-22 02:33N 37°47' W 122°23'0 0.0
2016-May-22 01:33N 37°47' W 122°23'0 0.0
2016-May-22 00:33N 37°47' W 122°23'0 0.0
2016-May-21 23:33N 37°47' W 122°23'0 0.2
2016-May-21 22:33N 37°47' W 122°23'1211.5
2016-May-21 21:33N 37°57' W 122°30'0 0.1
2016-May-21 20:33N 37°57' W 122°31'0 0.1
2016-May-21 19:33N 37°57' W 122°30'0 0.0
2016-May-21 07:16N 37°57' W 122°30'5 7.0
2016-May-21 06:33N 37°53' W 122°26'7 7.0
2016-May-21 05:33N 37°47' W 122°23'0 0.0
2016-May-21 04:33N 37°47' W 122°23'0 0.0
2016-May-21 03:33N 37°47' W 122°23'0 0.0
2016-May-21 02:33N 37°47' W 122°23'4 3.8
2016-May-21 01:34N 37°50' W 122°24'8 8.1
2016-May-21 00:34N 37°57' W 122°31'  

Dump ship's entire track history